createdAt,value
2022-08-10T00:00:50.590Z,18.42
2022-08-10T00:01:45.705Z,18.42
2022-08-10T00:02:41.922Z,18.40
2022-08-10T00:03:36.793Z,18.39
2022-08-10T00:04:32.190Z,18.39
2022-08-10T00:05:27.549Z,18.35
2022-08-10T00:06:24.730Z,18.29
2022-08-10T00:07:18.917Z,18.25
2022-08-10T00:08:22.543Z,18.26
2022-08-10T00:09:10.903Z,18.25
2022-08-10T00:10:05.130Z,18.23
2022-08-10T00:11:01.814Z,18.22
2022-08-10T00:11:56.697Z,18.22
2022-08-10T00:12:53.529Z,18.21
2022-08-10T00:13:47.751Z,18.16
2022-08-10T00:14:43.031Z,18.11
2022-08-10T00:15:52.919Z,18.06
2022-08-10T00:16:34.141Z,18.00
2022-08-10T00:17:28.184Z,17.98
2022-08-10T00:18:34.697Z,18.01
2022-08-10T00:19:19.265Z,18.02
2022-08-10T00:20:13.309Z,18.07
2022-08-10T00:21:08.457Z,18.11
2022-08-10T00:22:04.376Z,18.11
2022-08-10T00:22:59.669Z,18.05
2022-08-10T00:23:55.486Z,18.01
2022-08-10T00:24:50.563Z,17.96
2022-08-10T00:25:45.718Z,17.87
2022-08-10T00:27:50.041Z,17.81
2022-08-10T00:28:02.114Z,17.77
2022-08-10T00:28:33.691Z,17.73
2022-08-10T00:29:27.726Z,17.70
2022-08-10T00:30:22.952Z,17.73
2022-08-10T00:31:18.124Z,17.78
2022-08-10T00:32:13.259Z,17.80
2022-08-10T00:33:09.730Z,17.79
2022-08-10T00:34:04.872Z,17.82
2022-08-10T00:35:00.692Z,17.84
2022-08-10T00:35:55.899Z,17.88
2022-08-10T00:36:51.068Z,17.94
2022-08-10T00:37:56.402Z,17.98
2022-08-10T00:38:43.094Z,18.00
2022-08-10T00:39:39.562Z,18.02
2022-08-10T00:40:37.206Z,17.98
2022-08-10T00:41:29.332Z,17.92
2022-08-10T00:42:23.395Z,17.90
2022-08-10T00:43:23.761Z,17.91
2022-08-10T00:44:14.447Z,17.86
2022-08-10T00:45:08.571Z,17.84
2022-08-10T00:46:03.580Z,17.84
2022-08-10T00:46:58.587Z,17.82
2022-08-10T00:47:53.607Z,17.81
2022-08-10T00:48:49.532Z,17.80
2022-08-10T00:49:45.577Z,17.74
2022-08-10T00:50:39.792Z,17.72
2022-08-10T00:51:47.984Z,17.69
2022-08-10T00:52:32.216Z,17.62
2022-08-10T00:53:26.362Z,17.59
2022-08-10T00:54:24.012Z,17.58
2022-08-10T00:55:17.219Z,17.53
2022-08-10T00:57:14.916Z,17.51
2022-08-10T00:57:18.071Z,17.49
2022-08-10T00:58:03.735Z,17.48
2022-08-10T00:58:57.774Z,17.47
2022-08-10T00:59:59.340Z,17.48
2022-08-10T01:00:48.962Z,17.44
2022-08-10T01:02:09.620Z,17.45
2022-08-10T01:02:39.279Z,17.48
2022-08-10T01:04:54.622Z,17.51
2022-08-10T01:04:57.285Z,17.48
2022-08-10T01:05:24.621Z,17.49
2022-08-10T01:06:18.816Z,17.49
2022-08-10T01:07:14.060Z,17.54
2022-08-10T01:08:09.091Z,17.54
2022-08-10T01:09:04.194Z,17.51
2022-08-10T01:09:59.177Z,17.47
2022-08-10T01:10:58.501Z,17.41
2022-08-10T01:12:40.869Z,17.38
2022-08-10T01:12:49.756Z,17.45
2022-08-10T01:13:43.640Z,17.51
2022-08-10T01:14:38.619Z,17.51
2022-08-10T01:15:33.750Z,17.54
2022-08-10T01:16:28.875Z,17.57
2022-08-10T01:17:23.987Z,17.60
2022-08-10T01:18:20.590Z,17.55
2022-08-10T01:19:14.741Z,17.51
2022-08-10T01:20:09.914Z,17.50
2022-08-10T01:21:06.156Z,17.44
2022-08-10T01:22:01.021Z,17.39
2022-08-10T01:22:56.224Z,17.31
2022-08-10T01:23:51.518Z,17.23
2022-08-10T01:24:47.329Z,17.14
2022-08-10T01:26:11.092Z,17.13
2022-08-10T01:26:40.760Z,17.10
2022-08-10T01:27:32.799Z,17.06
2022-08-10T01:28:28.614Z,17.04
2022-08-10T01:29:23.756Z,17.05
2022-08-10T01:30:18.967Z,17.03
2022-08-10T01:31:15.277Z,17.00
2022-08-10T01:32:10.422Z,17.00
2022-08-10T01:33:06.269Z,17.04
2022-08-10T01:34:02.580Z,17.09
2022-08-10T01:34:56.543Z,17.13
2022-08-10T01:35:51.577Z,17.17
2022-08-10T01:36:46.570Z,17.22
2022-08-10T01:37:51.863Z,17.23
2022-08-10T01:38:41.154Z,17.21
2022-08-10T01:39:36.190Z,17.21
2022-08-10T01:40:31.369Z,17.26
2022-08-10T01:41:27.167Z,17.30
2022-08-10T01:42:23.328Z,17.30
2022-08-10T01:43:18.103Z,17.32
2022-08-10T01:44:13.234Z,17.32
2022-08-10T01:45:09.208Z,17.33
2022-08-10T01:46:04.193Z,17.31
2022-08-10T01:46:59.317Z,17.27
2022-08-10T01:47:55.169Z,17.24
2022-08-10T01:48:50.338Z,17.22
2022-08-10T01:49:45.590Z,17.13
2022-08-10T01:50:53.407Z,17.06
2022-08-10T01:51:38.118Z,16.98
2022-08-10T01:52:33.133Z,16.93
2022-08-10T01:53:28.189Z,16.89
2022-08-10T01:54:24.826Z,16.84
2022-08-10T01:55:18.995Z,16.81
2022-08-10T01:56:14.958Z,16.82
2022-08-10T01:57:10.071Z,16.87
2022-08-10T01:58:05.190Z,16.86
2022-08-10T01:59:01.056Z,16.84
2022-08-10T02:00:02.133Z,16.83
2022-08-10T02:00:53.110Z,16.82
2022-08-10T02:01:47.176Z,16.81
2022-08-10T02:02:42.299Z,16.82
2022-08-10T02:04:04.129Z,16.86
2022-08-10T02:04:33.386Z,16.94
2022-08-10T02:05:27.460Z,16.98
2022-08-10T02:06:22.445Z,17.02
2022-08-10T02:07:17.450Z,17.02
2022-08-10T02:08:12.484Z,17.02
2022-08-10T02:09:07.835Z,17.01
2022-08-10T02:10:02.607Z,17.00
2022-08-10T02:10:57.774Z,17.02
2022-08-10T02:12:05.107Z,17.02
2022-08-10T02:12:49.463Z,16.99
2022-08-10T02:13:43.671Z,16.99
2022-08-10T02:14:40.064Z,17.01
2022-08-10T02:15:35.197Z,17.03
2022-08-10T02:16:31.034Z,17.09
2022-08-10T02:17:57.748Z,17.12
2022-08-10T02:18:22.433Z,17.12
2022-08-10T02:19:17.695Z,17.15
2022-08-10T02:20:12.326Z,17.18
2022-08-10T02:21:07.518Z,17.17
2022-08-10T02:22:36.818Z,17.14
2022-08-10T02:23:00.091Z,17.12
2022-08-10T02:23:54.342Z,17.13
2022-08-10T02:24:50.570Z,17.11
2022-08-10T02:25:44.659Z,17.09
2022-08-10T02:26:39.869Z,17.06
2022-08-10T02:27:34.974Z,17.02
2022-08-10T02:28:31.081Z,17.00
2022-08-10T02:29:25.069Z,17.02
2022-08-10T02:30:20.143Z,17.05
2022-08-10T02:31:15.153Z,17.02
2022-08-10T02:32:10.321Z,16.99
2022-08-10T02:33:05.354Z,16.96
2022-08-10T02:34:00.417Z,16.91
2022-08-10T02:34:55.438Z,16.87
2022-08-10T02:35:55.417Z,16.83
2022-08-10T02:36:46.609Z,16.80
2022-08-10T02:37:40.595Z,16.77
2022-08-10T02:38:58.065Z,16.79
2022-08-10T02:39:35.331Z,16.73
2022-08-10T02:42:17.961Z,16.71
2022-08-10T02:45:13.777Z,16.73
2022-08-10T02:45:19.191Z,16.75
2022-08-10T02:45:20.984Z,16.70
2022-08-10T02:45:26.073Z,16.74
2022-08-10T02:45:26.983Z,16.74
2022-08-10T02:46:00.757Z,16.75
2022-08-10T02:46:54.858Z,16.79
2022-08-10T02:47:52.169Z,16.86
2022-08-10T02:48:45.099Z,16.90
2022-08-10T02:49:44.354Z,16.93
2022-08-10T02:50:39.529Z,16.93
2022-08-10T02:52:06.451Z,16.98
2022-08-10T02:52:31.026Z,16.99
2022-08-10T02:53:56.650Z,17.03
2022-08-10T02:54:21.153Z,17.07
2022-08-10T02:55:17.917Z,17.11
2022-08-10T02:56:10.248Z,17.08
2022-08-10T02:57:05.341Z,17.08
2022-08-10T02:58:15.298Z,17.10
2022-08-10T02:58:56.422Z,17.10
2022-08-10T02:59:50.432Z,17.09
2022-08-10T03:00:45.593Z,17.08
2022-08-10T03:01:40.553Z,17.10
2022-08-10T03:02:35.744Z,17.11
2022-08-10T03:03:30.582Z,17.11
2022-08-10T03:04:55.214Z,17.11
2022-08-10T03:05:21.643Z,17.08
2022-08-10T03:06:15.728Z,17.11
2022-08-10T03:07:10.823Z,17.14
2022-08-10T03:08:06.108Z,17.16
2022-08-10T03:09:01.239Z,17.16
2022-08-10T03:09:56.397Z,17.14
2022-08-10T03:10:51.700Z,17.14
2022-08-10T03:12:35.315Z,17.12
2022-08-10T03:12:42.768Z,17.09
2022-08-10T03:13:36.830Z,17.11
2022-08-10T03:14:33.299Z,17.11
2022-08-10T03:15:28.425Z,17.13
2022-08-10T03:16:23.416Z,17.18
2022-08-10T03:17:18.533Z,17.19
2022-08-10T03:18:13.543Z,17.17
2022-08-10T03:20:03.974Z,17.18
2022-08-10T03:20:36.870Z,17.17
2022-08-10T03:20:59.713Z,17.17
2022-08-10T03:21:53.752Z,17.14
2022-08-10T03:22:48.833Z,17.12
2022-08-10T03:23:43.953Z,17.09
2022-08-10T03:24:39.121Z,17.08
2022-08-10T03:25:34.253Z,17.06
2022-08-10T03:26:29.347Z,17.02
2022-08-10T03:27:24.443Z,16.98
2022-08-10T03:28:20.795Z,16.94
2022-08-10T03:29:15.601Z,16.85
2022-08-10T03:30:29.801Z,16.82
2022-08-10T03:31:06.952Z,16.82
2022-08-10T03:32:01.141Z,16.85
2022-08-10T03:32:57.065Z,16.89
2022-08-10T03:33:52.233Z,16.93
2022-08-10T03:34:47.491Z,16.94
2022-08-10T03:35:43.720Z,16.97
2022-08-10T03:36:44.925Z,16.97
2022-08-10T03:37:35.716Z,16.96
2022-08-10T03:38:29.897Z,16.96
2022-08-10T03:39:25.331Z,16.94
2022-08-10T03:40:21.032Z,16.90
2022-08-10T03:41:17.258Z,16.84
2022-08-10T03:42:11.992Z,16.80
2022-08-10T03:43:07.285Z,16.77
2022-08-10T03:44:02.626Z,16.75
2022-08-10T03:44:58.255Z,16.75
2022-08-10T03:45:55.470Z,16.78
2022-08-10T03:46:48.727Z,16.84
2022-08-10T03:47:43.746Z,16.91
2022-08-10T03:48:49.153Z,16.97
2022-08-10T03:49:34.972Z,16.98
2022-08-10T03:50:51.398Z,17.00
2022-08-10T03:51:25.686Z,17.00
2022-08-10T03:52:19.935Z,17.01
2022-08-10T03:53:25.105Z,17.02
2022-08-10T03:54:12.169Z,17.03
2022-08-10T03:55:06.409Z,17.04
2022-08-10T03:56:29.705Z,17.02
2022-08-10T03:56:59.240Z,17.01
2022-08-10T03:57:54.057Z,17.02
2022-08-10T03:58:49.202Z,17.03
2022-08-10T03:59:44.524Z,17.05
2022-08-10T04:00:40.147Z,17.05
2022-08-10T04:02:42.273Z,17.06
2022-08-10T04:02:44.345Z,17.03
2022-08-10T04:03:29.304Z,17.00
2022-08-10T04:04:24.517Z,16.99
2022-08-10T04:05:17.142Z,16.99
2022-08-10T04:06:12.465Z,16.98
2022-08-10T04:07:08.696Z,17.01
2022-08-10T04:08:03.921Z,17.01
2022-08-10T04:08:59.729Z,16.99
2022-08-10T04:09:56.441Z,17.00
2022-08-10T04:10:50.439Z,16.98
2022-08-10T04:11:45.629Z,16.97
2022-08-10T04:12:40.490Z,16.97
2022-08-10T04:13:39.153Z,16.91
2022-08-10T04:14:44.963Z,16.87
2022-08-10T04:15:30.199Z,16.80
2022-08-10T04:16:25.247Z,16.79
2022-08-10T04:17:59.507Z,16.80
2022-08-10T04:18:16.996Z,16.81
2022-08-10T04:19:11.338Z,16.81
2022-08-10T04:20:06.956Z,16.78
2022-08-10T04:21:02.317Z,16.79
2022-08-10T04:21:57.661Z,16.83
2022-08-10T04:22:54.103Z,16.87
2022-08-10T04:23:53.053Z,16.91
2022-08-10T04:24:45.162Z,16.92
2022-08-10T04:25:40.506Z,16.95
2022-08-10T04:26:35.866Z,16.96
2022-08-10T04:27:31.701Z,16.98
2022-08-10T04:28:27.012Z,17.02
2022-08-10T04:29:22.373Z,17.05
2022-08-10T04:30:17.732Z,17.07
2022-08-10T04:31:13.782Z,17.09
2022-08-10T04:32:09.110Z,17.10
2022-08-10T04:33:04.617Z,17.12
2022-08-10T04:34:00.224Z,17.16
2022-08-10T04:34:56.623Z,17.19
2022-08-10T04:35:51.444Z,17.22
2022-08-10T04:36:46.784Z,17.24
2022-08-10T04:37:46.694Z,17.25
2022-08-10T04:38:38.846Z,17.24
2022-08-10T04:39:33.324Z,17.26
2022-08-10T04:40:30.958Z,17.28
2022-08-10T04:41:25.121Z,17.28
2022-08-10T04:42:20.538Z,17.29
2022-08-10T04:43:16.195Z,17.28
2022-08-10T04:44:11.677Z,17.27
2022-08-10T04:45:07.070Z,17.26
2022-08-10T04:46:03.805Z,17.24
2022-08-10T04:46:59.918Z,17.23
2022-08-10T04:48:00.354Z,17.21
2022-08-10T04:49:01.594Z,17.17
2022-08-10T04:49:56.462Z,17.10
2022-08-10T04:50:41.205Z,17.07
2022-08-10T04:51:35.047Z,17.09
2022-08-10T04:52:30.156Z,17.09
2022-08-10T04:53:25.156Z,17.12
2022-08-10T04:54:20.407Z,17.16
2022-08-10T04:55:15.482Z,17.18
2022-08-10T04:56:10.535Z,17.20
2022-08-10T04:57:05.524Z,17.20
2022-08-10T04:58:00.625Z,17.27
2022-08-10T04:58:55.662Z,17.32
2022-08-10T04:59:50.661Z,17.36
2022-08-10T05:00:45.685Z,17.37
2022-08-10T05:02:29.182Z,17.40
2022-08-10T05:02:36.934Z,17.39
2022-08-10T05:03:31.243Z,17.43
2022-08-10T05:04:36.278Z,17.41
2022-08-10T05:05:23.063Z,17.37
2022-08-10T05:06:17.924Z,17.38
2022-08-10T05:07:16.368Z,17.39
2022-08-10T05:08:09.616Z,17.34
2022-08-10T05:09:05.019Z,17.40
2022-08-10T05:10:05.391Z,17.41
2022-08-10T05:10:56.773Z,17.41
2022-08-10T05:11:52.489Z,17.45
2022-08-10T05:12:47.882Z,17.49
2022-08-10T05:13:43.390Z,17.50
2022-08-10T05:14:38.653Z,17.53
2022-08-10T05:15:34.302Z,17.47
2022-08-10T05:16:31.883Z,17.48
2022-08-10T05:17:25.130Z,17.44
2022-08-10T05:18:20.657Z,17.48
2022-08-10T05:19:16.053Z,17.48
2022-08-10T05:20:11.611Z,17.51
2022-08-10T05:21:07.048Z,17.55
2022-08-10T05:22:04.588Z,17.59
2022-08-10T05:22:57.837Z,17.65
2022-08-10T05:23:53.328Z,17.71
2022-08-10T05:24:52.586Z,17.74
2022-08-10T05:25:48.035Z,17.76
2022-08-10T05:27:09.128Z,17.79
2022-08-10T05:27:39.073Z,17.79
2022-08-10T05:28:35.116Z,17.83
2022-08-10T05:29:28.277Z,17.90
2022-08-10T05:30:23.338Z,17.94
2022-08-10T05:31:22.451Z,17.98
2022-08-10T05:32:15.372Z,17.95
2022-08-10T05:33:09.973Z,17.97
2022-08-10T05:34:05.195Z,17.96
2022-08-10T05:35:01.800Z,17.92
2022-08-10T05:35:57.991Z,17.91
2022-08-10T05:36:51.720Z,17.95
2022-08-10T05:38:10.636Z,17.99
2022-08-10T05:38:43.783Z,17.97
2022-08-10T05:39:38.183Z,17.95
2022-08-10T05:40:33.531Z,17.93
2022-08-10T05:41:28.548Z,17.91
2022-08-10T05:42:23.631Z,17.93
2022-08-10T05:43:18.653Z,17.98
2022-08-10T05:44:13.826Z,18.00
2022-08-10T05:45:08.879Z,17.99
2022-08-10T05:46:18.082Z,18.00
2022-08-10T05:46:59.993Z,18.07
2022-08-10T05:48:40.711Z,18.11
2022-08-10T05:48:59.549Z,18.06
2022-08-10T05:49:46.538Z,18.01
2022-08-10T05:50:40.610Z,18.04
2022-08-10T05:51:35.644Z,18.12
2022-08-10T05:52:30.687Z,18.11
2022-08-10T05:54:00.910Z,18.10
2022-08-10T05:54:21.787Z,18.08
2022-08-10T05:55:17.229Z,18.04
2022-08-10T05:56:11.503Z,18.10
2022-08-10T05:57:06.563Z,18.14
2022-08-10T05:58:01.578Z,18.18
2022-08-10T05:58:56.631Z,18.18
2022-08-10T06:00:29.530Z,18.24
2022-08-10T06:00:50.187Z,18.27
2022-08-10T06:01:41.812Z,18.37
2022-08-10T06:02:36.749Z,18.46
2022-08-10T06:03:31.811Z,18.51
2022-08-10T06:04:26.833Z,18.47
2022-08-10T06:05:21.861Z,18.49
2022-08-10T06:06:18.302Z,18.54
2022-08-10T06:07:11.893Z,18.52
2022-08-10T06:08:06.954Z,18.53
2022-08-10T06:09:02.253Z,18.59
2022-08-10T06:09:59.050Z,18.67
2022-08-10T06:12:24.725Z,18.69
2022-08-10T06:12:27.437Z,18.74
2022-08-10T06:12:55.382Z,18.79
2022-08-10T06:13:59.699Z,18.77
2022-08-10T06:14:36.762Z,18.81
2022-08-10T06:15:51.892Z,18.91
2022-08-10T06:16:26.909Z,18.93
2022-08-10T06:17:21.028Z,18.89
2022-08-10T06:18:16.310Z,18.90
2022-08-10T06:19:11.893Z,18.95
2022-08-10T06:20:07.509Z,18.97
2022-08-10T06:21:02.682Z,19.01
2022-08-10T06:22:01.149Z,19.08
2022-08-10T06:22:53.521Z,19.15
2022-08-10T06:23:49.082Z,19.17
2022-08-10T06:25:10.085Z,19.23
2022-08-10T06:26:11.213Z,19.25
2022-08-10T06:26:36.339Z,19.23
2022-08-10T06:27:34.741Z,19.19
2022-08-10T06:28:27.487Z,19.16
2022-08-10T06:29:22.956Z,19.20
2022-08-10T06:30:19.980Z,19.19
2022-08-10T06:31:13.040Z,19.10
2022-08-10T06:32:08.090Z,19.20
2022-08-10T06:33:03.099Z,19.31
2022-08-10T06:33:58.430Z,19.34
2022-08-10T06:34:53.349Z,19.42
2022-08-10T06:35:48.524Z,19.46
2022-08-10T06:36:44.376Z,19.48
2022-08-10T06:37:39.393Z,19.54
2022-08-10T06:38:34.515Z,19.60
2022-08-10T06:39:34.148Z,19.66
2022-08-10T06:40:26.740Z,19.71
2022-08-10T06:41:20.926Z,19.80
2022-08-10T06:42:17.875Z,19.87
2022-08-10T06:43:11.782Z,19.97
2022-08-10T06:44:07.208Z,20.06
2022-08-10T06:45:02.765Z,20.10
2022-08-10T06:46:07.513Z,20.09
2022-08-10T06:46:54.641Z,20.08
2022-08-10T06:47:49.170Z,19.98
2022-08-10T06:48:44.614Z,19.80
2022-08-10T06:49:40.090Z,19.71
2022-08-10T06:50:55.899Z,19.71
2022-08-10T06:51:31.999Z,19.72
2022-08-10T06:52:26.411Z,19.86
2022-08-10T06:53:21.424Z,20.01
2022-08-10T06:54:16.465Z,20.17
2022-08-10T06:55:11.667Z,20.33
2022-08-10T06:56:06.652Z,20.38
2022-08-10T06:57:17.802Z,20.28
2022-08-10T06:58:00.107Z,20.16
2022-08-10T06:58:51.913Z,20.24
2022-08-10T06:59:49.373Z,20.20
2022-08-10T07:00:44.533Z,20.25
2022-08-10T07:01:39.517Z,20.43
2022-08-10T07:02:34.516Z,20.64
2022-08-10T07:03:29.537Z,20.73
2022-08-10T07:04:32.823Z,20.87
2022-08-10T07:05:21.099Z,20.90
2022-08-10T07:06:15.480Z,21.05
2022-08-10T07:07:10.928Z,21.17
2022-08-10T07:08:06.385Z,21.28
2022-08-10T07:09:01.812Z,21.33
2022-08-10T07:09:57.335Z,21.26
2022-08-10T07:10:52.707Z,21.23
2022-08-10T07:11:48.110Z,21.09
2022-08-10T07:12:43.557Z,21.15
2022-08-10T07:14:16.732Z,21.21
2022-08-10T07:14:35.430Z,21.24
2022-08-10T07:15:59.596Z,21.29
2022-08-10T07:16:26.538Z,21.33
2022-08-10T07:17:20.940Z,21.35
2022-08-10T07:18:16.478Z,21.39
2022-08-10T07:19:11.911Z,21.52
2022-08-10T07:20:07.388Z,21.73
2022-08-10T07:21:02.880Z,21.99
2022-08-10T07:21:58.302Z,22.14
2022-08-10T07:23:01.619Z,22.27
2022-08-10T07:23:57.634Z,22.36
2022-08-10T07:24:45.664Z,22.49
2022-08-10T07:25:39.656Z,22.60
2022-08-10T07:26:34.804Z,22.72
2022-08-10T07:27:29.864Z,22.76
2022-08-10T07:28:25.974Z,22.84
2022-08-10T07:29:52.688Z,22.93
2022-08-10T07:30:16.055Z,23.04
2022-08-10T07:31:49.303Z,23.03
2022-08-10T07:32:06.240Z,22.94
2022-08-10T07:33:00.344Z,22.86
2022-08-10T07:33:55.332Z,22.82
2022-08-10T07:34:50.321Z,22.90
2022-08-10T07:35:45.362Z,23.06
2022-08-10T07:36:40.345Z,23.18
2022-08-10T07:37:35.362Z,22.94
2022-08-10T07:38:30.642Z,22.81
2022-08-10T07:40:02.131Z,22.88
2022-08-10T07:40:21.983Z,22.85
2022-08-10T07:41:15.829Z,22.96
2022-08-10T07:42:11.434Z,23.07
2022-08-10T07:43:06.706Z,23.24
2022-08-10T07:44:02.288Z,23.38
2022-08-10T07:44:57.822Z,23.48
2022-08-10T07:45:53.387Z,23.61
2022-08-10T07:46:48.923Z,23.59
2022-08-10T07:47:53.861Z,23.52
2022-08-10T07:48:40.942Z,23.61
2022-08-10T07:49:35.516Z,23.72
2022-08-10T07:50:33.098Z,23.85
2022-08-10T07:51:27.349Z,23.88
2022-08-10T07:52:22.219Z,23.83
2022-08-10T07:53:17.818Z,23.86
2022-08-10T07:54:13.205Z,24.01
2022-08-10T07:55:08.688Z,23.91
2022-08-10T07:56:20.949Z,23.95
2022-08-10T07:57:00.664Z,23.84
2022-08-10T07:57:55.029Z,23.67
2022-08-10T07:58:51.778Z,23.63
2022-08-10T07:59:46.169Z,23.75
2022-08-10T08:00:41.590Z,24.01
2022-08-10T08:01:37.183Z,24.24
2022-08-10T08:02:33.235Z,24.49
2022-08-10T08:03:27.886Z,24.47
2022-08-10T08:04:23.423Z,24.46
2022-08-10T08:05:57.680Z,24.56
2022-08-10T08:06:15.423Z,24.53
2022-08-10T08:07:09.878Z,24.43
2022-08-10T08:08:05.503Z,24.41
2022-08-10T08:09:00.818Z,24.49
2022-08-10T08:09:57.018Z,24.49
2022-08-10T08:10:51.865Z,24.52
2022-08-10T08:11:47.311Z,24.61
2022-08-10T08:12:42.691Z,24.53
2022-08-10T08:13:38.294Z,24.48
2022-08-10T08:14:37.753Z,24.33
2022-08-10T08:16:20.669Z,24.22
2022-08-10T08:16:29.726Z,24.29
2022-08-10T08:17:24.111Z,24.15
2022-08-10T08:18:25.227Z,24.21
2022-08-10T08:19:37.429Z,24.33
2022-08-10T08:20:11.538Z,24.45
2022-08-10T08:21:09.345Z,24.42
2022-08-10T08:24:04.649Z,24.16
2022-08-10T08:24:06.695Z,24.23
2022-08-10T08:24:06.696Z,24.48
2022-08-10T08:24:48.860Z,24.71
2022-08-10T08:25:43.350Z,24.84
2022-08-10T08:26:38.930Z,25.03
2022-08-10T08:27:34.455Z,25.11
2022-08-10T08:28:29.649Z,25.12
2022-08-10T08:29:24.490Z,25.12
2022-08-10T08:30:26.823Z,25.10
2022-08-10T08:31:15.666Z,25.20
2022-08-10T08:32:09.749Z,25.16
2022-08-10T08:33:04.845Z,25.06
2022-08-10T08:34:00.049Z,25.05
2022-08-10T08:34:55.050Z,25.06
2022-08-10T08:35:50.067Z,25.12
2022-08-10T08:36:45.093Z,25.19
2022-08-10T08:38:32.517Z,25.17
2022-08-10T08:38:36.253Z,25.11
2022-08-10T08:39:30.215Z,25.29
2022-08-10T08:40:25.239Z,25.45
2022-08-10T08:41:21.039Z,25.66
2022-08-10T08:42:16.478Z,25.73
2022-08-10T08:43:11.998Z,25.67
2022-08-10T08:44:07.546Z,25.54
2022-08-10T08:45:02.978Z,25.54
2022-08-10T08:46:01.165Z,25.36
2022-08-10T08:46:59.391Z,25.34
2022-08-10T08:48:04.149Z,25.30
2022-08-10T08:48:46.218Z,25.23
2022-08-10T08:50:09.075Z,25.14
2022-08-10T08:50:36.918Z,25.04
2022-08-10T08:52:08.002Z,25.37
2022-08-10T08:52:28.547Z,25.70
2022-08-10T08:53:23.014Z,25.66
2022-08-10T08:54:17.991Z,25.62
2022-08-10T08:56:03.060Z,25.56
2022-08-10T08:56:08.995Z,25.51
2022-08-10T08:57:03.057Z,25.67
2022-08-10T08:57:58.063Z,25.86
2022-08-10T08:58:53.176Z,25.89
2022-08-10T08:59:48.349Z,25.93
2022-08-10T09:00:45.264Z,26.11
2022-08-10T09:01:41.435Z,26.03
2022-08-10T09:02:36.375Z,25.97
2022-08-10T09:03:31.779Z,26.04
2022-08-10T09:04:27.290Z,26.28
2022-08-10T09:05:22.750Z,26.51
2022-08-10T09:06:18.049Z,26.67
2022-08-10T09:08:00.510Z,26.45
2022-08-10T09:08:10.624Z,26.54
2022-08-10T09:09:05.091Z,26.51
2022-08-10T09:10:00.631Z,26.43
2022-08-10T09:10:56.173Z,26.40
2022-08-10T09:11:51.780Z,26.25
2022-08-10T09:12:47.107Z,26.20
2022-08-10T09:13:42.627Z,25.93
2022-08-10T09:14:37.647Z,26.06
2022-08-10T09:15:40.544Z,26.36
2022-08-10T09:16:28.795Z,26.58
2022-08-10T09:17:22.831Z,26.63
2022-08-10T09:18:17.844Z,26.54
2022-08-10T09:19:28.414Z,26.54
2022-08-10T09:20:08.952Z,26.48
2022-08-10T09:21:03.083Z,26.56
2022-08-10T09:22:12.975Z,26.31
2022-08-10T09:22:57.374Z,26.01
2022-08-10T09:24:04.495Z,25.80
2022-08-10T09:24:45.335Z,26.09
2022-08-10T09:25:39.736Z,26.41
2022-08-10T09:26:35.191Z,26.57
2022-08-10T09:27:30.683Z,26.79
2022-08-10T09:28:26.544Z,27.09
2022-08-10T09:29:21.650Z,27.36
2022-08-10T09:30:16.778Z,27.41
2022-08-10T09:31:21.847Z,27.46
2022-08-10T09:36:16.604Z,27.38
2022-08-10T09:36:20.092Z,27.43
2022-08-10T09:36:20.696Z,27.45
2022-08-10T09:36:22.444Z,26.87
2022-08-10T09:36:24.405Z,27.14
2022-08-10T09:36:43.657Z,26.93
2022-08-10T09:37:40.066Z,27.15
2022-08-10T09:38:34.661Z,27.27
2022-08-10T09:40:06.860Z,27.27
2022-08-10T09:40:59.562Z,27.09
2022-08-10T09:41:21.604Z,27.13
2022-08-10T09:42:15.864Z,27.27
2022-08-10T09:43:25.289Z,27.23
2022-08-10T09:44:09.008Z,27.20
2022-08-10T09:45:03.711Z,27.33
2022-08-10T09:45:59.211Z,27.42
2022-08-10T09:46:54.796Z,27.62
2022-08-10T09:48:02.225Z,27.49
2022-08-10T09:48:47.022Z,27.39
2022-08-10T09:49:59.797Z,27.23
2022-08-10T09:51:22.366Z,27.13
2022-08-10T09:51:45.259Z,27.21
2022-08-10T09:52:27.512Z,27.46
2022-08-10T09:53:21.525Z,27.82
2022-08-10T09:54:16.607Z,28.05
2022-08-10T09:55:11.695Z,28.34
2022-08-10T09:56:17.548Z,28.29
2022-08-10T09:57:43.439Z,27.75
2022-08-10T09:57:59.038Z,27.49
2022-08-10T09:59:27.210Z,27.22
2022-08-10T10:00:00.442Z,26.97
2022-08-10T10:00:43.886Z,26.83
2022-08-10T10:02:03.919Z,27.04
2022-08-10T10:02:34.067Z,27.30
2022-08-10T10:03:28.237Z,27.59
2022-08-10T10:04:23.615Z,27.90
2022-08-10T10:05:19.080Z,27.94
2022-08-10T10:06:14.830Z,28.27
2022-08-10T10:07:10.430Z,28.46
2022-08-10T10:08:06.331Z,28.52
2022-08-10T10:09:10.077Z,28.44
2022-08-10T10:09:58.383Z,28.37
2022-08-10T10:10:53.040Z,28.22
2022-08-10T10:11:48.464Z,27.77
2022-08-10T10:12:44.064Z,27.70
2022-08-10T10:14:01.744Z,27.72
2022-08-10T10:14:36.652Z,27.82
2022-08-10T10:15:31.447Z,27.77
2022-08-10T10:16:26.940Z,27.74
2022-08-10T10:17:22.369Z,27.71
2022-08-10T10:18:18.144Z,27.56
2022-08-10T10:19:13.610Z,27.49
2022-08-10T10:20:09.506Z,27.63
2022-08-10T10:21:04.791Z,27.79
2022-08-10T10:22:00.362Z,27.86
2022-08-10T10:22:56.202Z,27.72
2022-08-10T10:24:19.708Z,27.61
2022-08-10T10:24:48.065Z,27.55
2022-08-10T10:25:50.653Z,27.62
2022-08-10T10:26:39.296Z,27.75
2022-08-10T10:27:33.821Z,27.59
2022-08-10T10:28:44.437Z,27.67
2022-08-10T10:29:58.700Z,27.66
2022-08-10T10:30:22.070Z,27.51
2022-08-10T10:31:17.094Z,27.58
2022-08-10T10:32:12.320Z,27.64
2022-08-10T10:33:07.856Z,27.83
2022-08-10T10:34:04.661Z,27.99
2022-08-10T10:34:59.075Z,27.99
2022-08-10T10:35:54.739Z,28.00
2022-08-10T10:36:50.029Z,27.99
2022-08-10T10:38:10.305Z,28.00
2022-08-10T10:38:42.796Z,27.98
2022-08-10T10:39:37.208Z,28.07
2022-08-10T10:40:33.094Z,28.15
2022-08-10T10:41:28.665Z,28.33
2022-08-10T10:42:44.155Z,28.30
2022-08-10T10:43:21.027Z,28.29
2022-08-10T10:44:15.509Z,28.19
2022-08-10T10:45:11.338Z,28.44
2022-08-10T10:46:06.727Z,28.73
2022-08-10T10:47:02.048Z,29.01
2022-08-10T10:47:57.927Z,29.15
2022-08-10T10:48:53.711Z,29.20
2022-08-10T10:49:49.038Z,29.01
2022-08-10T10:50:45.568Z,28.85
2022-08-10T10:51:41.188Z,28.94
2022-08-10T10:52:36.677Z,28.74
2022-08-10T10:53:32.164Z,28.65
2022-08-10T10:54:28.217Z,28.60
2022-08-10T10:55:23.553Z,28.50
2022-08-10T10:56:19.038Z,28.48
2022-08-10T10:57:14.585Z,28.28
2022-08-10T10:58:10.725Z,28.02
2022-08-10T10:59:54.199Z,28.05
2022-08-10T11:00:02.968Z,28.16
2022-08-10T11:01:00.338Z,28.33
2022-08-10T11:01:55.779Z,28.32
2022-08-10T11:02:51.123Z,28.25
2022-08-10T11:03:46.665Z,28.24
2022-08-10T11:04:41.735Z,28.27
2022-08-10T11:05:36.835Z,28.17
2022-08-10T11:06:40.195Z,28.16
2022-08-10T11:07:32.031Z,28.14
2022-08-10T11:08:28.993Z,27.95
2022-08-10T11:10:05.211Z,27.99
2022-08-10T11:10:33.122Z,27.95
2022-08-10T11:11:10.899Z,27.91
2022-08-10T11:12:04.826Z,27.67
2022-08-10T11:12:57.264Z,27.55
2022-08-10T11:14:25.043Z,27.92
2022-08-10T11:14:48.509Z,28.02
2022-08-10T11:15:47.392Z,28.15
2022-08-10T11:16:38.417Z,28.39
2022-08-10T11:17:33.886Z,28.40
2022-08-10T11:18:30.094Z,27.85
2022-08-10T11:19:25.489Z,27.88
2022-08-10T11:20:22.231Z,28.20
2022-08-10T11:21:16.802Z,28.20
2022-08-10T11:22:16.225Z,28.10
2022-08-10T11:23:08.558Z,27.78
2022-08-10T11:24:47.078Z,27.96
2022-08-10T11:25:01.104Z,28.16
2022-08-10T11:25:55.374Z,28.27
2022-08-10T11:26:50.893Z,28.30
2022-08-10T11:27:47.306Z,28.41
2022-08-10T11:28:42.651Z,28.52
2022-08-10T11:29:39.698Z,28.57
2022-08-10T11:30:34.431Z,28.60
2022-08-10T11:31:30.008Z,28.52
2022-08-10T11:32:25.895Z,28.53
2022-08-10T11:33:31.061Z,28.42
2022-08-10T11:34:47.519Z,28.37
2022-08-10T11:35:13.634Z,28.28
2022-08-10T11:36:08.329Z,28.23
2022-08-10T11:37:03.787Z,28.42
2022-08-10T11:38:32.071Z,28.48
2022-08-10T11:39:13.451Z,28.61
2022-08-10T11:39:51.384Z,28.59
2022-08-10T11:40:46.052Z,28.37
2022-08-10T11:42:12.333Z,28.39
2022-08-10T11:42:38.100Z,28.34
2022-08-10T11:43:33.193Z,28.37
2022-08-10T11:44:28.620Z,28.32
2022-08-10T11:45:24.305Z,28.06
2022-08-10T11:46:28.452Z,27.72
2022-08-10T11:47:16.777Z,27.47
2022-08-10T11:48:11.603Z,27.65
2022-08-10T11:49:07.899Z,27.86
2022-08-10T11:50:02.277Z,28.11
2022-08-10T11:50:58.841Z,28.36
2022-08-10T11:51:54.358Z,28.55
2022-08-10T11:52:49.968Z,28.61
2022-08-10T11:53:45.450Z,28.84